ROMMA est une association bénévole à but non lucratif. Votre soutien est indispensable : ADHERER à ROMMA ou FAIRE un DON

Pinsot - (38, Isère)

Vallée du Haut Bréda (750 m)   Longitude: 06° 06' E   Latitude: 45° 21' N Station partenaire n°101
 

Détail journalier du     <<     >>

Température Humidité Pression Vent Dir Rafale Dir. rafale Ensol.
Heure (°C) (%) (hPa) (km/h) (km/h) (min)
01:00 -6.19110205SSO11SSE0
02:00 -5.79210203SSO10SSO0
03:00 -5.89310205SSO10SSO0
04:00 -4.79210197SSO15SSO0
05:00 -5.49310195SSO10SSO0
06:00 -5.19310196SSO11S0
07:00 -5.19310194SSO11SSO0
08:00 -4.99310194SSO10SSO0
09:00 -4.39310195SSO10SSO0
10:00 -3.89310193SSO8SSO0
11:00 -2.59410186SSO10SSO0
12:00 1.89210182SSO10SSO21
13:00 3.68610171SSO6SSO46
14:00 3.29010172SSO8SSE21
15:00 4.48510161SSO8ENE59
16:00 2.99110151ENE6ENE31
17:00 2.3931015002
18:00 1.69510141SSO6SSO0
19:00 1.39510141SSO8SSO0
20:00 1.3961013000
21:00 0.996101206SSO0
22:00 0.295101008S0
23:00 -0.296100906SSO0
minuit -0.29610091SSO10SSO0

Graphique du 26-01-2019

 

Serveur OMMA